Mc Guire Air Force Base
KWRI : rendu visible

Aérodrome :











RETROUVEZ-NOUS SUR...

 
LOGIN :

S'inscrire | Disclaimer

   EN    FR    IT 

 









Légende :    VFR   VFR Marginal   IFR   IFR Intensif   IFR Très Intensif
Visi : 
Plafond : 
>= 8 km
>= 3000ft
5 à 8 km
1000 à 3000 ft
1500m à 5 km
500 à 1000 ft
800 à 1500m
200 à 500 ft
< 800m
< 200 ft
Symboles :   Orages  Brouillard  Fortes neiges  Fortes précipitations  Vent > 20 kt






- Altitude de l'aérodrome : 131 ft
- Code IATA : WRI


KWRI - Mc Guire Air Force Base

DERNIER METAR :
  • 210056Z AUTO 30009KT 10SM FEW085 05/M01 A3008 RMK AO2 SLP187 T00521006

METARs EXPIRÉS :
  • 202356Z AUTO 31007KT 10SM SCT070 06/00 A3007 RMK AO2 SLP183 T00581005 10103 20058 52026
  • 202256Z AUTO 32012G18KT 10SM SCT035 BKN075 07/00 A3005 RMK AO2 PK WND 32026/05 SLP176 T00710001

TAF TAF KWRI
Valide du 20 à 18h jusqu'au 22 à 00h UTC


201800Z 2018/2124 33015G25KT 9999 SCT070 SCT150 QNH2995INS
BECMG 2021/2022 32010KT 9999 SCT050 QNH2999INS
BECMG 2102/2103 31005KT 9999 SKC QNH3010INS
BECMG 2114/2115 29010G15KT 9999 SKC QNH3006INS TX11/2019Z TN00/2110Z



MET'MAP, la Météo Aéronautique d'un coup d'oeil ! - Copyright ORBIFLY Décembre 2007 - Disclaimer

ORBIFLY MET'MAP TEAM :

Programmation & Développement : Alexandra Zaïnal
Conception & Développement : Baudouin d'Aumeries
Co-Programmation & Développement : Marc-Olivier Méhu
Soutien technique & logistique : Manuel Goepfert

Contact : metmap@orbifly.com




SOURCES & CREDITS :

   NOAA       Earth
Advisory